Time;durP1;ratioP1;P1;durP2;ratioP2;P2;SDS_P1;SDS_P2;PMS_P1;PMS_P2;Temp;Humidity;BMP_temperature;BMP_pressure;BME280_temperature;BME280_humidity;BME280_pressure;Samples;Min_cycle;Max_cycle;Signal;HPM_P1;HPM_P2
2023/01/10 00:00:51;;;;;;;1.75;0.93;;;8.50;99.90;;;;;;5054132;28;20120;-39
2023/01/10 00:03:17;;;;;;;1.50;0.80;;;8.50;99.90;;;;;;5054433;28;20108;-41
2023/01/10 00:05:43;;;;;;;2.70;0.80;;;8.50;99.90;;;;;;5053802;28;20455;-43
2023/01/10 00:08:14;;;;;;;1.70;0.80;;;8.50;99.90;;;;;;5054857;28;20032;-37
2023/01/10 00:10:39;;;;;;;1.13;0.70;;;8.50;99.90;;;;;;5054502;28;20338;-40
2023/01/10 00:13:23;;;;;;;1.23;0.70;;;8.50;99.90;;;;;;5054310;28;20506;-39
2023/01/10 00:15:52;;;;;;;0.60;0.60;;;8.50;99.90;;;;;;5054760;28;20067;-41
2023/01/10 00:18:18;;;;;;;1.65;0.88;;;8.50;99.90;;;;;;5053494;28;20021;-41
2023/01/10 00:20:44;;;;;;;1.25;0.70;;;8.50;99.90;;;;;;5053566;28;20471;-36
2023/01/10 00:23:11;;;;;;;1.60;0.90;;;8.50;99.90;;;;;;5053728;28;20108;-42
2023/01/10 00:25:37;;;;;;;2.17;0.73;;;8.50;99.90;;;;;;5056358;28;20116;-39
2023/01/10 00:28:10;;;;;;;2.17;0.82;;;8.50;99.90;;;;;;5053505;28;20104;-41
2023/01/10 00:30:39;;;;;;;0.65;0.47;;;8.50;99.90;;;;;;5053315;28;20057;-42
2023/01/10 00:33:06;;;;;;;1.02;0.77;;;8.50;99.90;;;;;;5053291;28;20021;-39
2023/01/10 00:35:32;;;;;;;0.93;0.60;;;8.50;99.90;;;;;;5053161;28;20493;-40
2023/01/10 00:38:00;;;;;;;2.55;0.80;;;8.50;99.90;;;;;;5052494;28;20025;-42
2023/01/10 00:40:26;;;;;;;1.88;1.00;;;8.50;99.90;;;;;;5052965;28;20032;-41
2023/01/10 00:45:35;;;;;;;2.50;0.60;;;8.50;99.90;;;;;;5053019;28;20043;-42
2023/01/10 00:48:01;;;;;;;1.40;0.70;;;8.50;99.90;;;;;;5053049;28;20037;-41
2023/01/10 00:50:27;;;;;;;1.25;0.80;;;8.50;99.90;;;;;;5052847;28;20071;-36
2023/01/10 00:52:52;;;;;;;1.52;0.70;;;8.50;99.90;;;;;;5053042;28;20391;-41
2023/01/10 00:55:18;;;;;;;1.48;0.70;;;8.50;99.90;;;;;;5053884;28;20078;-43
2023/01/10 00:57:43;;;;;;;0.80;0.52;;;8.50;99.90;;;;;;5054252;28;20029;-40
2023/01/10 01:00:11;;;;;;;2.08;0.70;;;8.50;99.90;;;;;;5052776;28;20025;-42
2023/01/10 01:02:36;;;;;;;1.13;0.80;;;8.50;99.90;;;;;;5052916;28;20104;-42
2023/01/10 01:05:03;;;;;;;0.77;0.60;;;8.50;99.90;;;;;;5052806;28;20032;-42
2023/01/10 01:07:29;;;;;;;2.28;0.70;;;8.50;99.90;;;;;;5053190;28;20383;-40
2023/01/10 01:12:38;;;;;;;1.42;0.70;;;8.50;99.90;;;;;;5053090;28;20078;-41
2023/01/10 01:15:04;;;;;;;0.80;0.60;;;8.50;99.90;;;;;;5052781;28;20479;-42
2023/01/10 01:17:30;;;;;;;0.80;0.70;;;8.50;99.90;;;;;;5052030;28;20056;-40
2023/01/10 01:19:56;;;;;;;1.33;0.70;;;8.50;99.90;;;;;;5053744;28;20056;-40
2023/01/10 01:22:21;;;;;;;0.90;0.60;;;8.50;99.90;;;;;;5052885;28;20501;-41
2023/01/10 01:24:47;;;;;;;1.48;0.60;;;8.50;99.90;;;;;;5052323;28;20071;-41
2023/01/10 01:27:13;;;;;;;1.73;0.60;;;8.50;99.90;;;;;;5052226;28;20029;-43
2023/01/10 01:29:38;;;;;;;0.90;0.60;;;8.50;99.90;;;;;;5052260;28;20056;-41
2023/01/10 01:32:04;;;;;;;0.88;0.52;;;8.50;99.90;;;;;;5053520;28;20052;-41
2023/01/10 01:34:30;;;;;;;0.65;0.47;;;8.50;99.90;;;;;;5052168;28;20045;-37
2023/01/10 01:36:57;;;;;;;1.05;0.60;;;8.40;99.90;;;;;;5052240;28;20048;-38
2023/01/10 01:39:23;;;;;;;0.50;0.40;;;8.50;99.90;;;;;;5053020;28;20463;-38
2023/01/10 01:41:57;;;;;;;0.93;0.50;;;8.50;99.90;;;;;;5052344;28;20103;-39
2023/01/10 01:44:24;;;;;;;;;;;8.50;99.90;;;;;;5052332;28;20025;-41
2023/01/10 01:47:05;;;;;;;0.57;0.50;;;8.50;99.90;;;;;;5052505;28;19904;-38
2023/01/10 01:49:33;;;;;;;0.90;0.40;;;8.50;99.90;;;;;;5052710;28;20025;-42
2023/01/10 01:52:04;;;;;;;2.58;0.80;;;8.50;99.90;;;;;;5052143;28;20032;-42
2023/01/10 01:54:31;;;;;;;0.55;0.40;;;8.50;99.90;;;;;;5051833;28;20075;-39
2023/01/10 01:57:18;;;;;;;1.05;0.40;;;8.40;99.90;;;;;;5052328;28;20017;-37
2023/01/10 01:59:48;;;;;;;0.98;0.65;;;8.40;99.90;;;;;;5052478;28;20463;-40
2023/01/10 02:02:20;;;;;;;0.40;0.40;;;8.40;99.90;;;;;;5050984;28;20036;-38
2023/01/10 02:04:46;;;;;;;1.00;0.60;;;8.40;99.90;;;;;;5051833;28;20108;-39
2023/01/10 02:07:12;;;;;;;2.25;0.43;;;8.40;99.90;;;;;;5051563;28;20104;-38
2023/01/10 02:10:00;;;;;;;1.48;0.68;;;8.40;99.90;;;;;;5051960;28;20372;-38
2023/01/10 02:12:28;;;;;;;1.23;0.63;;;8.40;99.90;;;;;;5050471;28;20474;-38
2023/01/10 02:14:53;;;;;;;0.98;0.50;;;8.40;99.90;;;;;;5052625;28;20064;-40
2023/01/10 02:17:19;;;;;;;1.38;0.68;;;8.50;99.90;;;;;;5052272;28;20021;-42
2023/01/10 02:19:53;;;;;;;1.27;0.68;;;8.40;99.90;;;;;;5051320;28;20554;-37
2023/01/10 02:22:18;;;;;;;0.88;0.57;;;8.40;99.90;;;;;;5052133;28;20043;-40
2023/01/10 02:25:18;;;;;;;0.65;0.30;;;8.40;99.90;;;;;;5051630;28;20021;-43
2023/01/10 02:27:56;;;;;;;0.80;0.40;;;8.40;99.90;;;;;;5051129;28;20681;-41
2023/01/10 02:30:46;;;;;;;1.42;0.60;;;8.40;99.90;;;;;;5052371;28;20033;-41
2023/01/10 02:33:52;;;;;;;0.63;0.40;;;8.40;99.90;;;;;;5050914;28;20047;-39
2023/01/10 02:36:24;;;;;;;1.02;0.40;;;8.40;99.90;;;;;;5048334;28;20344;-41
2023/01/10 02:39:22;;;;;;;0.65;0.50;;;8.40;99.90;;;;;;5051514;28;20494;-38
2023/01/10 02:41:58;;;;;;;0.40;0.30;;;8.40;99.90;;;;;;5051200;28;20033;-42
2023/01/10 02:44:29;;;;;;;0.90;0.43;;;8.40;99.90;;;;;;5052380;28;20044;-41
2023/01/10 02:46:55;;;;;;;0.40;0.38;;;8.40;99.90;;;;;;5051520;28;20025;-41
2023/01/10 02:49:21;;;;;;;0.50;0.40;;;8.40;99.90;;;;;;5051703;28;20032;-41
2023/01/10 02:51:47;;;;;;;1.05;0.50;;;8.40;99.90;;;;;;5051889;28;20025;-43
2023/01/10 02:54:25;;;;;;;0.70;0.50;;;8.40;99.90;;;;;;5051064;28;20025;-35
2023/01/10 02:57:05;;;;;;;0.35;0.30;;;8.40;99.90;;;;;;5051252;28;20418;-36
2023/01/10 03:00:04;;;;;;;0.82;0.30;;;8.40;99.90;;;;;;5051146;28;20028;-39
2023/01/10 03:02:40;;;;;;;0.40;0.40;;;8.40;99.90;;;;;;5055110;28;20108;-40
2023/01/10 03:05:09;;;;;;;1.55;0.40;;;8.40;99.90;;;;;;5055088;28;20021;-42
2023/01/10 03:07:57;;;;;;;0.82;0.32;;;8.40;99.90;;;;;;5055635;28;20048;-38
2023/01/10 03:10:27;;;;;;;1.45;0.50;;;8.40;99.90;;;;;;5055683;28;20027;-41
2023/01/10 03:13:21;;;;;;;0.63;0.30;;;8.40;99.90;;;;;;5055100;28;20032;-39
2023/01/10 03:15:49;;;;;;;0.98;0.47;;;8.40;99.90;;;;;;5053941;28;20087;-36
2023/01/10 03:18:22;;;;;;;2.28;0.68;;;8.40;99.90;;;;;;5054483;28;20109;-38
2023/01/10 03:20:51;;;;;;;0.80;0.40;;;8.30;99.90;;;;;;5055263;28;20029;-43
2023/01/10 03:23:21;;;;;;;3.50;0.50;;;8.40;99.90;;;;;;5055284;28;20033;-41
2023/01/10 03:25:51;;;;;;;1.88;0.60;;;8.40;99.90;;;;;;5054885;28;20028;-43
2023/01/10 03:28:40;;;;;;;3.08;0.75;;;8.40;99.90;;;;;;5054329;28;20048;-42
2023/01/10 03:31:08;;;;;;;1.45;0.55;;;8.40;99.90;;;;;;5054397;28;20430;-40
2023/01/10 03:33:35;;;;;;;1.90;0.40;;;8.40;99.90;;;;;;5055302;28;20395;-38
2023/01/10 03:36:17;;;;;;;1.73;0.60;;;8.40;99.90;;;;;;5055631;28;20449;-42
2023/01/10 03:38:46;;;;;;;1.98;0.45;;;8.40;99.90;;;;;;5054679;28;20029;-40
2023/01/10 03:41:46;;;;;;;1.20;0.47;;;8.40;99.90;;;;;;5054827;28;20104;-41
2023/01/10 03:47:06;;;;;;;0.85;0.50;;;8.40;99.90;;;;;;5054326;28;20130;-40
2023/01/10 03:49:34;;;;;;;1.20;0.50;;;8.40;99.90;;;;;;5053943;28;20025;-41
2023/01/10 03:52:02;;;;;;;0.40;0.40;;;8.40;99.90;;;;;;5055059;28;20021;-39
2023/01/10 03:54:28;;;;;;;1.30;0.60;;;8.40;99.90;;;;;;5054394;28;20040;-42
2023/01/10 03:56:53;;;;;;;0.63;0.38;;;8.30;99.90;;;;;;5054534;28;20471;-43
2023/01/10 03:59:24;;;;;;;1.25;0.50;;;8.40;99.90;;;;;;5053941;28;20061;-41
2023/01/10 04:01:51;;;;;;;0.82;0.40;;;8.40;99.90;;;;;;5054360;28;20033;-40
2023/01/10 04:04:17;;;;;;;0.30;0.30;;;8.40;99.90;;;;;;5054202;28;20048;-41
2023/01/10 04:06:42;;;;;;;1.73;0.55;;;8.40;99.90;;;;;;5055390;28;20029;-39
2023/01/10 04:09:08;;;;;;;0.70;0.40;;;8.30;99.90;;;;;;5055692;28;20025;-39
2023/01/10 04:11:34;;;;;;;0.80;0.40;;;8.30;99.90;;;;;;5053852;28;20082;-36
2023/01/10 04:14:01;;;;;;;0.95;0.50;;;8.40;99.90;;;;;;5055605;28;20025;-41
2023/01/10 04:16:26;;;;;;;1.30;0.43;;;8.30;99.90;;;;;;5052656;28;20021;-40
2023/01/10 04:18:53;;;;;;;1.92;0.63;;;8.30;99.90;;;;;;5053925;28;20092;-42
2023/01/10 04:21:19;;;;;;;1.40;0.50;;;8.30;99.90;;;;;;5053547;28;20032;-42
2023/01/10 04:23:44;;;;;;;1.08;0.30;;;8.30;99.90;;;;;;5053771;28;20036;-43
2023/01/10 04:26:10;;;;;;;0.80;0.30;;;8.30;99.90;;;;;;5053472;28;20029;-41
2023/01/10 04:28:36;;;;;;;0.30;0.30;;;8.30;99.90;;;;;;5053421;28;20394;-39
2023/01/10 04:31:02;;;;;;;1.73;0.32;;;8.30;99.90;;;;;;5053261;28;20029;-39
2023/01/10 04:33:27;;;;;;;1.55;0.50;;;8.30;99.90;;;;;;5053928;28;20390;-41
2023/01/10 04:35:53;;;;;;;1.40;0.43;;;8.30;99.90;;;;;;5053615;28;20021;-42
2023/01/10 04:38:19;;;;;;;0.80;0.45;;;8.30;99.90;;;;;;5053803;28;20110;-40
2023/01/10 04:40:52;;;;;;;1.15;0.40;;;8.30;99.90;;;;;;5053264;28;20032;-41
2023/01/10 04:43:18;;;;;;;0.40;0.35;;;8.30;99.90;;;;;;5053119;28;20486;-39
2023/01/10 04:45:43;;;;;;;1.08;0.40;;;8.30;99.90;;;;;;5053323;28;20029;-40
2023/01/10 04:48:09;;;;;;;1.80;0.57;;;8.30;99.90;;;;;;5052902;28;20025;-40
2023/01/10 04:50:34;;;;;;;1.58;0.38;;;8.30;99.90;;;;;;5052994;28;20489;-41
2023/01/10 04:53:00;;;;;;;1.27;0.47;;;8.30;99.90;;;;;;5053448;28;20108;-41
2023/01/10 04:55:26;;;;;;;1.50;0.50;;;8.30;99.90;;;;;;5052728;28;20394;-38
2023/01/10 04:57:51;;;;;;;2.15;0.60;;;8.30;99.90;;;;;;5052751;28;20079;-39
2023/01/10 05:00:17;;;;;;;2.45;0.40;;;8.30;99.90;;;;;;5052887;28;20067;-42
2023/01/10 05:02:43;;;;;;;2.53;0.50;;;8.30;99.90;;;;;;5052760;28;20493;-41
2023/01/10 05:05:15;;;;;;;2.40;0.60;;;8.30;99.90;;;;;;5052755;28;20035;-42
2023/01/10 05:07:40;;;;;;;1.77;0.60;;;8.30;99.90;;;;;;5053798;28;20036;-42
2023/01/10 05:10:07;;;;;;;2.00;0.63;;;8.30;99.90;;;;;;5051109;28;20029;-38
2023/01/10 05:12:33;;;;;;;0.90;0.52;;;8.30;99.90;;;;;;5052654;28;20024;-41
2023/01/10 05:14:59;;;;;;;2.92;0.60;;;8.20;99.90;;;;;;5052554;28;20490;-39
2023/01/10 05:17:25;;;;;;;3.80;0.60;;;8.30;99.90;;;;;;5052852;28;20017;-43
2023/01/10 05:19:51;;;;;;;2.25;0.63;;;8.30;99.90;;;;;;5052708;28;20025;-38
2023/01/10 05:22:16;;;;;;;2.33;0.60;;;8.30;99.90;;;;;;5052472;28;20086;-43
2023/01/10 05:24:42;;;;;;;4.00;0.82;;;8.30;99.90;;;;;;5051537;28;20025;-42
2023/01/10 05:27:08;;;;;;;5.70;0.90;;;8.30;99.90;;;;;;5051998;28;20020;-41
2023/01/10 05:29:33;;;;;;;2.15;0.68;;;8.20;99.90;;;;;;5052257;28;20024;-40
2023/01/10 05:31:59;;;;;;;3.80;0.70;;;8.20;99.90;;;;;;5052187;28;20033;-40
2023/01/10 05:34:26;;;;;;;2.80;0.70;;;8.30;99.90;;;;;;5052371;28;20029;-41
2023/01/10 05:36:51;;;;;;;3.20;1.02;;;8.30;99.90;;;;;;5053368;28;20037;-38
2023/01/10 05:39:17;;;;;;;4.78;1.52;;;8.20;99.90;;;;;;5051821;28;20025;-40
2023/01/10 05:41:43;;;;;;;3.38;1.30;;;8.20;99.90;;;;;;5052006;28;20029;-40
2023/01/10 05:44:09;;;;;;;2.80;1.10;;;8.20;99.90;;;;;;5051976;28;20537;-39
2023/01/10 05:46:35;;;;;;;4.57;1.05;;;8.20;99.90;;;;;;5051761;28;20035;-40
2023/01/10 05:49:00;;;;;;;6.60;1.40;;;8.20;99.90;;;;;;5053894;28;20417;-39
2023/01/10 05:51:26;;;;;;;3.28;1.25;;;8.20;99.90;;;;;;5051810;28;20120;-43
2023/01/10 05:53:52;;;;;;;7.53;1.63;;;8.20;99.90;;;;;;5051723;28;20020;-42
2023/01/10 05:56:17;;;;;;;5.82;1.50;;;8.20;99.90;;;;;;5052934;28;20086;-41
2023/01/10 05:58:43;;;;;;;6.20;1.50;;;8.20;99.90;;;;;;5052876;28;20029;-37
2023/01/10 06:01:09;;;;;;;4.97;1.63;;;8.20;99.90;;;;;;5052774;28;20028;-42
2023/01/10 06:03:35;;;;;;;5.30;1.58;;;8.20;99.90;;;;;;5051761;28;20074;-42
2023/01/10 06:06:04;;;;;;;7.35;1.80;;;8.20;99.90;;;;;;5051517;28;20047;-42
2023/01/10 06:08:29;;;;;;;4.35;1.20;;;8.20;99.90;;;;;;5051564;28;20390;-41
2023/01/10 06:10:55;;;;;;;3.45;1.40;;;8.20;99.90;;;;;;5052373;28;20025;-41
2023/01/10 06:13:21;;;;;;;6.28;1.77;;;8.20;99.90;;;;;;5052352;28;20047;-41
2023/01/10 06:15:47;;;;;;;5.65;1.50;;;8.20;99.90;;;;;;5050478;28;20032;-41
2023/01/10 06:18:13;;;;;;;4.65;1.33;;;8.20;99.90;;;;;;5051896;28;20025;-42
2023/01/10 06:20:40;;;;;;;5.55;1.33;;;8.20;99.90;;;;;;5051420;28;20112;-42
2023/01/10 06:23:06;;;;;;;7.38;1.60;;;8.20;99.90;;;;;;5051179;28;20028;-41
2023/01/10 06:25:35;;;;;;;4.00;1.45;;;8.20;99.90;;;;;;5051299;28;20040;-41
2023/01/10 06:28:01;;;;;;;7.03;1.73;;;8.20;99.90;;;;;;5051057;28;20031;-42
2023/01/10 06:30:27;;;;;;;5.05;1.40;;;8.20;99.90;;;;;;5051288;28;20118;-42
2023/01/10 06:32:53;;;;;;;9.35;1.45;;;8.20;99.90;;;;;;5051293;28;20475;-43
2023/01/10 06:35:19;;;;;;;7.38;1.77;;;8.20;99.90;;;;;;5051154;28;20471;-42
2023/01/10 06:37:44;;;;;;;5.10;1.50;;;8.20;99.90;;;;;;5050777;28;20510;-43
2023/01/10 06:40:11;;;;;;;5.05;1.63;;;8.20;99.90;;;;;;5051174;28;20071;-40
2023/01/10 06:42:36;;;;;;;8.35;1.48;;;8.20;99.90;;;;;;5051140;28;20039;-37
2023/01/10 06:45:03;;;;;;;4.43;1.75;;;8.20;99.90;;;;;;5050965;28;20033;-42
2023/01/10 06:47:29;;;;;;;10.82;2.10;;;8.20;99.90;;;;;;5050653;28;20032;-41
2023/01/10 06:49:54;;;;;;;7.90;1.95;;;8.20;99.90;;;;;;5051011;28;20033;-42
2023/01/10 06:52:20;;;;;;;9.23;2.28;;;8.20;99.90;;;;;;5051042;28;20482;-41
2023/01/10 06:54:46;;;;;;;4.80;1.85;;;8.20;99.90;;;;;;5050937;28;20033;-42
2023/01/10 06:57:11;;;;;;;6.70;1.20;;;8.20;99.90;;;;;;5051107;28;20487;-40
2023/01/10 06:59:37;;;;;;;6.10;1.52;;;8.20;99.90;;;;;;5051007;28;20104;-38
2023/01/10 07:02:02;;;;;;;3.67;1.30;;;8.20;99.90;;;;;;5051179;28;20027;-42
2023/01/10 07:04:28;;;;;;;3.30;1.60;;;8.20;99.90;;;;;;5051250;28;20099;-40
2023/01/10 07:06:54;;;;;;;7.18;1.58;;;8.20;99.90;;;;;;5049829;28;20395;-43
2023/01/10 07:09:20;;;;;;;5.47;1.90;;;8.20;99.90;;;;;;5051718;28;20068;-40
2023/01/10 07:11:45;;;;;;;5.18;1.50;;;8.20;99.90;;;;;;5050857;28;20025;-42
2023/01/10 07:14:11;;;;;;;4.70;1.42;;;8.20;99.90;;;;;;5050906;28;20021;-41
2023/01/10 07:16:36;;;;;;;5.53;1.55;;;8.20;99.90;;;;;;5050427;28;20551;-42
2023/01/10 07:19:02;;;;;;;7.10;1.38;;;8.10;99.90;;;;;;5050752;28;20021;-43
2023/01/10 07:21:28;;;;;;;5.95;1.77;;;8.20;99.90;;;;;;5050745;28;20017;-42
2023/01/10 07:23:53;;;;;;;5.97;1.92;;;8.10;99.90;;;;;;5050832;28;20024;-41
2023/01/10 07:26:19;;;;;;;9.27;2.08;;;8.20;99.90;;;;;;5050343;28;20032;-42
2023/01/10 07:28:49;;;;;;;6.88;1.90;;;8.20;99.90;;;;;;5050654;28;20021;-42
2023/01/10 07:31:16;;;;;;;6.35;1.92;;;8.10;99.90;;;;;;5050488;28;20028;-41
2023/01/10 07:33:42;;;;;;;8.93;2.10;;;8.20;99.90;;;;;;5050705;28;20025;-42
2023/01/10 07:36:07;;;;;;;10.52;2.08;;;8.10;99.90;;;;;;5050378;28;20101;-40
2023/01/10 07:38:33;;;;;;;5.13;1.73;;;8.10;99.90;;;;;;5050716;28;20391;-42
2023/01/10 07:41:01;;;;;;;5.05;1.77;;;8.10;99.90;;;;;;5050612;28;20032;-42
2023/01/10 07:43:27;;;;;;;5.78;1.90;;;8.10;99.90;;;;;;5051072;28;20021;-40
2023/01/10 07:45:52;;;;;;;7.25;1.83;;;8.10;99.90;;;;;;5050371;28;20036;-42
2023/01/10 07:48:18;;;;;;;7.32;1.77;;;8.10;99.90;;;;;;5054565;28;20029;-42
2023/01/10 07:50:44;;;;;;;8.20;2.00;;;8.10;99.90;;;;;;5054089;28;20032;-41
2023/01/10 07:53:10;;;;;;;8.68;2.10;;;8.10;99.90;;;;;;5055035;28;20021;-41
2023/01/10 07:55:38;;;;;;;7.53;3.78;;;8.10;99.90;;;;;;5053975;28;20052;-42
2023/01/10 07:58:06;;;;;;;14.48;4.20;;;8.00;99.90;;;;;;5053781;28;20104;-43
2023/01/10 08:00:33;;;;;;;15.30;3.97;;;7.90;99.90;;;;;;5053983;28;20036;-43
2023/01/10 08:02:58;;;;;;;14.20;4.25;;;7.90;99.90;;;;;;5052631;28;20493;-43
2023/01/10 08:05:24;;;;;;;11.10;3.97;;;7.80;99.90;;;;;;5053881;28;20025;-43
2023/01/10 08:07:51;;;;;;;14.65;3.80;;;7.90;99.90;;;;;;5053709;28;20025;-43
2023/01/10 08:10:17;;;;;;;10.32;3.50;;;7.90;99.90;;;;;;5053848;28;20061;-43
2023/01/10 08:12:42;;;;;;;13.18;3.92;;;7.90;99.90;;;;;;5053751;28;20056;-43
2023/01/10 08:15:09;;;;;;;10.88;3.60;;;7.90;99.90;;;;;;5053928;28;20104;-43
2023/01/10 08:17:35;;;;;;;10.82;3.35;;;7.90;99.90;;;;;;5053398;28;20021;-43
2023/01/10 08:20:01;;;;;;;13.00;3.53;;;7.90;99.90;;;;;;5053612;28;20403;-43
2023/01/10 08:22:27;;;;;;;12.20;3.42;;;7.90;99.90;;;;;;5053928;28;20033;-43
2023/01/10 08:24:53;;;;;;;10.50;3.78;;;7.90;99.90;;;;;;5053514;28;20063;-42
2023/01/10 08:27:18;;;;;;;9.35;3.25;;;7.90;99.90;;;;;;5053644;28;20029;-41
2023/01/10 08:29:44;;;;;;;11.50;3.20;;;7.90;99.90;;;;;;5053312;28;20045;-43
2023/01/10 08:32:10;;;;;;;10.48;2.70;;;8.00;99.90;;;;;;5053447;28;20074;-43
2023/01/10 08:34:36;;;;;;;9.05;3.47;;;8.00;99.90;;;;;;5053344;28;20021;-43
2023/01/10 08:37:02;;;;;;;7.95;2.90;;;8.00;99.90;;;;;;5053096;28;20028;-43
2023/01/10 08:39:31;;;;;;;7.88;2.92;;;8.00;99.90;;;;;;5053174;28;20017;-43
2023/01/10 08:41:58;;;;;;;13.13;3.33;;;8.00;99.90;;;;;;5053135;28;20394;-43
2023/01/10 08:44:25;;;;;;;10.15;3.17;;;8.00;99.90;;;;;;5053169;28;20025;-43
2023/01/10 08:46:51;;;;;;;9.98;3.13;;;8.00;99.90;;;;;;5052915;28;20025;-43
2023/01/10 08:49:16;;;;;;;8.60;3.08;;;8.00;99.90;;;;;;5052973;28;20116;-42
2023/01/10 08:51:43;;;;;;;11.77;3.03;;;8.00;99.90;;;;;;5052924;28;20033;-44
2023/01/10 08:54:09;;;;;;;9.30;2.90;;;8.00;99.90;;;;;;5053039;28;20045;-43
2023/01/10 08:56:36;;;;;;;6.32;2.80;;;8.00;99.90;;;;;;5052979;28;20117;-44
2023/01/10 08:59:01;;;;;;;10.38;2.80;;;8.10;99.90;;;;;;5052091;28;20536;-42
2023/01/10 09:01:27;;;;;;;9.13;2.55;;;8.00;99.90;;;;;;5052901;28;20032;-41
2023/01/10 09:03:53;;;;;;;7.50;2.75;;;8.10;99.90;;;;;;5052855;28;20131;-43
2023/01/10 09:06:18;;;;;;;8.80;2.47;;;8.10;99.90;;;;;;5052497;28;20044;-44
2023/01/10 09:08:44;;;;;;;8.75;3.08;;;8.10;99.90;;;;;;5052642;28;20031;-44
2023/01/10 09:11:09;;;;;;;6.75;2.63;;;8.10;99.90;;;;;;5052553;28;20075;-44
2023/01/10 09:13:35;;;;;;;6.38;2.83;;;8.10;99.90;;;;;;5052702;28;20119;-44
2023/01/10 09:16:01;;;;;;;6.68;2.78;;;8.10;99.90;;;;;;5052320;28;20457;-43
2023/01/10 09:18:26;;;;;;;9.23;2.63;;;8.10;99.90;;;;;;5052403;28;20025;-43
2023/01/10 09:20:53;;;;;;;9.00;2.35;;;8.00;99.90;;;;;;5052449;28;20514;-42
2023/01/10 09:23:21;;;;;;;7.00;2.38;;;8.00;99.90;;;;;;5052449;28;20025;-42
2023/01/10 09:25:51;;;;;;;10.18;2.50;;;8.10;99.90;;;;;;5052112;28;20028;-44
2023/01/10 09:28:17;;;;;;;9.30;2.63;;;8.00;99.90;;;;;;5052158;28;20472;-43
2023/01/10 09:30:43;;;;;;;8.80;2.40;;;8.10;99.90;;;;;;5052245;28;20033;-43
2023/01/10 09:33:09;;;;;;;8.68;2.38;;;8.10;99.90;;;;;;5052167;28;20502;-44
2023/01/10 09:35:37;;;;;;;5.78;2.17;;;8.10;99.90;;;;;;5052321;28;20021;-43
2023/01/10 09:38:04;;;;;;;10.02;2.65;;;8.10;99.90;;;;;;5051843;28;20411;-43
2023/01/10 09:40:50;;;;;;;9.38;2.30;;;8.10;99.90;;;;;;5051994;28;20409;-43
2023/01/10 09:43:39;;;;;;;10.30;2.75;;;8.10;99.90;;;;;;5052075;28;20479;-43
2023/01/10 09:46:17;;;;;;;8.35;2.60;;;8.10;99.90;;;;;;5052241;28;20032;-44
2023/01/10 09:48:57;;;;;;;8.85;2.60;;;8.10;99.90;;;;;;5051827;28;20029;-43
2023/01/10 09:51:35;;;;;;;7.93;2.45;;;8.10;99.90;;;;;;5051857;28;20029;-43
2023/01/10 09:54:05;;;;;;;12.15;2.45;;;8.20;99.90;;;;;;5051951;28;20017;-43
2023/01/10 09:56:32;;;;;;;6.47;2.22;;;8.20;99.90;;;;;;5051543;28;20037;-43
2023/01/10 09:58:59;;;;;;;7.50;2.20;;;8.20;99.90;;;;;;5051709;28;20021;-44
2023/01/10 10:01:37;;;;;;;7.97;2.40;;;8.20;99.90;;;;;;5051670;28;20029;-44
2023/01/10 10:04:24;;;;;;;8.38;2.28;;;8.30;99.90;;;;;;5051866;28;20040;-43
2023/01/10 10:06:51;;;;;;;8.82;2.10;;;8.30;99.90;;;;;;5051953;28;20107;-44
2023/01/10 10:09:26;;;;;;;7.43;2.13;;;8.30;99.90;;;;;;5051309;28;20052;-42
2023/01/10 10:12:06;;;;;;;7.22;2.55;;;8.30;99.90;;;;;;5051309;28;20028;-41
2023/01/10 10:14:55;;;;;;;7.95;2.33;;;8.40;99.90;;;;;;5052009;28;20320;-43
2023/01/10 10:17:40;;;;;;;14.68;2.35;;;8.40;99.90;;;;;;5052199;28;20013;-42
2023/01/10 10:20:32;;;;;;;9.45;1.75;;;8.50;99.90;;;;;;5051489;28;20025;-43
2023/01/10 10:23:24;;;;;;;8.68;2.20;;;8.50;99.90;;;;;;5051627;28;20021;-43
2023/01/10 10:26:05;;;;;;;7.70;2.05;;;8.50;99.90;;;;;;5051195;28;20021;-42
2023/01/10 10:28:34;;;;;;;8.38;1.92;;;8.50;99.90;;;;;;5051229;28;20113;-43
2023/01/10 10:31:32;;;;;;;9.90;2.38;;;8.60;99.90;;;;;;5051147;28;20471;-43
2023/01/10 10:34:22;;;;;;;6.90;1.85;;;8.60;99.90;;;;;;5051350;28;20056;-43
2023/01/10 10:37:04;;;;;;;9.40;2.33;;;8.60;99.90;;;;;;5051218;28;20045;-41
2023/01/10 10:39:45;;;;;;;6.05;1.75;;;8.70;99.90;;;;;;5051475;28;20375;-44
2023/01/10 10:42:15;;;;;;;6.45;1.55;;;8.60;99.90;;;;;;5051837;28;20561;-43
2023/01/10 10:44:58;;;;;;;5.18;1.58;;;8.70;99.90;;;;;;5051177;28;20033;-43
2023/01/10 10:47:29;;;;;;;5.68;1.75;;;8.70;99.90;;;;;;5050780;28;20017;-42
2023/01/10 10:50:17;;;;;;;10.63;1.63;;;8.70;99.90;;;;;;5051089;28;20078;-43
2023/01/10 10:52:44;;;;;;;5.32;1.73;;;8.70;99.90;;;;;;5051423;28;20111;-43
2023/01/10 10:55:16;;;;;;;8.05;1.58;;;8.70;99.90;;;;;;5051139;28;20036;-42
2023/01/10 10:57:45;;;;;;;8.65;1.70;;;8.70;99.90;;;;;;5050706;28;20021;-42
2023/01/10 11:00:19;;;;;;;4.47;1.55;;;8.70;99.90;;;;;;5051044;28;20039;-43
2023/01/10 11:02:50;;;;;;;5.65;1.33;;;8.60;99.90;;;;;;5052844;28;20029;-42
2023/01/10 11:05:39;;;;;;;4.13;1.50;;;8.60;99.90;;;;;;5051030;28;20033;-43
2023/01/10 11:08:14;;;;;;;5.70;1.67;;;8.60;99.90;;;;;;5050723;28;20033;-43
2023/01/10 11:10:45;;;;;;;7.03;1.83;;;8.60;99.90;;;;;;5049561;28;20056;-43
2023/01/10 11:13:21;;;;;;;6.22;1.75;;;8.60;99.90;;;;;;5050935;28;20446;-44
2023/01/10 11:15:48;;;;;;;5.88;1.80;;;8.60;99.90;;;;;;5051422;28;20032;-43
2023/01/10 11:18:19;;;;;;;5.97;1.67;;;8.60;99.90;;;;;;5050636;28;20112;-42
2023/01/10 11:20:57;;;;;;;7.22;1.63;;;8.60;99.90;;;;;;5050821;28;20029;-44
2023/01/10 11:23:40;;;;;;;6.22;1.75;;;8.60;99.90;;;;;;5054738;28;20053;-43
2023/01/10 11:26:20;;;;;;;6.88;1.70;;;8.60;99.90;;;;;;5054458;28;20387;-42
2023/01/10 11:28:46;;;;;;;5.30;1.50;;;8.60;99.90;;;;;;5057077;28;20075;-41
2023/01/10 11:31:12;;;;;;;7.75;1.60;;;8.60;99.90;;;;;;5054438;28;20425;-43
2023/01/10 11:33:40;;;;;;;7.60;1.70;;;8.70;99.90;;;;;;5054486;28;20108;-42
2023/01/10 11:36:08;;;;;;;6.45;1.75;;;8.70;99.90;;;;;;5054533;28;20082;-42
2023/01/10 11:38:35;;;;;;;6.78;1.40;;;8.70;99.90;;;;;;5055298;28;20029;-43
2023/01/10 11:41:30;;;;;;;8.73;1.63;;;8.70;99.90;;;;;;5054458;28;20017;-43
2023/01/10 11:44:14;;;;;;;;;;;8.70;99.90;;;;;;5052430;28;20029;-43
2023/01/10 11:46:45;;;;;;;9.63;1.70;;;8.80;99.90;;;;;;5054107;28;19916;-43
2023/01/10 11:49:19;;;;;;;12.13;2.10;;;8.80;99.90;;;;;;5054161;28;20033;-43
2023/01/10 11:51:54;;;;;;;4.85;1.77;;;8.80;99.90;;;;;;5054301;28;20029;-43
2023/01/10 11:54:23;;;;;;;6.20;1.88;;;8.90;99.90;;;;;;5054094;28;20025;-41
2023/01/10 11:57:07;;;;;;;6.72;1.63;;;8.90;99.90;;;;;;5053899;28;20036;-43
2023/01/10 11:59:33;;;;;;;6.15;1.60;;;8.90;99.90;;;;;;5053678;28;20036;-43
2023/01/10 12:02:15;;;;;;;5.00;1.55;;;8.90;99.90;;;;;;5054389;28;20033;-43
2023/01/10 12:04:46;;;;;;;6.72;1.83;;;9.00;99.90;;;;;;5054042;28;20025;-43
2023/01/10 12:07:12;;;;;;;5.43;1.40;;;9.00;99.90;;;;;;5054144;28;20076;-43
2023/01/10 12:09:55;;;;;;;4.75;1.40;;;9.00;99.90;;;;;;5054704;28;20027;-41
2023/01/10 12:12:24;;;;;;;9.65;1.67;;;9.10;99.90;;;;;;5054163;28;20033;-42
2023/01/10 12:14:51;;;;;;;9.02;1.95;;;9.10;99.90;;;;;;5054534;28;20032;-44
2023/01/10 12:17:36;;;;;;;7.50;1.50;;;9.00;99.90;;;;;;5053387;28;20017;-41
2023/01/10 12:20:05;;;;;;;6.07;1.48;;;9.10;99.90;;;;;;5054543;28;20029;-43
2023/01/10 12:22:35;;;;;;;6.57;1.58;;;9.10;99.90;;;;;;5054784;28;20025;-43
2023/01/10 12:25:19;;;;;;;7.78;1.90;;;9.10;99.90;;;;;;5053505;28;20529;-44
2023/01/10 12:27:48;;;;;;;5.35;1.52;;;9.00;99.90;;;;;;5054335;28;20076;-42
2023/01/10 12:30:20;;;;;;;7.32;1.50;;;9.00;99.90;;;;;;5053794;28;20017;-43
2023/01/10 12:32:51;;;;;;;6.57;1.80;;;9.00;99.90;;;;;;5053551;28;20032;-41
2023/01/10 12:35:26;;;;;;;7.00;1.40;;;9.00;99.90;;;;;;5053876;28;20032;-43
2023/01/10 12:38:16;;;;;;;6.88;1.55;;;9.00;99.90;;;;;;5053317;28;20022;-41
2023/01/10 12:40:58;;;;;;;6.00;1.55;;;9.00;99.90;;;;;;5053369;28;20628;-43
2023/01/10 12:46:48;;;;;;;7.83;1.40;;;9.00;99.90;;;;;;5053438;28;20040;-43
2023/01/10 12:49:27;;;;;;;4.72;1.50;;;9.00;99.90;;;;;;5049950;28;20282;-41
2023/01/10 12:51:57;;;;;;;4.78;1.52;;;9.00;99.90;;;;;;5053490;28;20037;-43
2023/01/10 12:54:26;;;;;;;4.45;1.45;;;9.00;99.90;;;;;;5054215;28;20039;-42
2023/01/10 12:56:53;;;;;;;7.97;1.58;;;9.00;99.90;;;;;;5053001;28;20020;-43
2023/01/10 12:59:24;;;;;;;7.57;1.35;;;9.00;99.90;;;;;;5054825;28;20040;-43
2023/01/10 13:01:58;;;;;;;5.60;1.60;;;8.90;99.90;;;;;;5052998;28;20031;-43
2023/01/10 13:04:25;;;;;;;7.82;1.50;;;8.90;99.90;;;;;;5052153;28;20037;-41
2023/01/10 13:06:52;;;;;;;6.50;1.30;;;8.90;99.90;;;;;;5052685;28;20040;-43
2023/01/10 13:09:19;;;;;;;4.45;1.27;;;8.90;99.90;;;;;;5052686;28;20095;-43
2023/01/10 13:12:10;;;;;;;7.72;1.50;;;8.90;99.90;;;;;;5053255;28;20491;-43
2023/01/10 13:14:49;;;;;;;6.10;1.55;;;8.90;99.90;;;;;;5052552;28;20078;-40
2023/01/10 13:17:37;;;;;;;4.82;1.23;;;8.90;99.90;;;;;;5052330;28;20029;-44
2023/01/10 13:20:21;;;;;;;8.25;1.75;;;8.90;99.90;;;;;;5052738;28;20017;-43
2023/01/10 13:22:50;;;;;;;4.93;1.20;;;8.90;99.90;;;;;;5054880;28;20051;-43
2023/01/10 13:25:19;;;;;;;4.50;1.30;;;8.80;99.90;;;;;;5052356;28;20054;-43